createdAt,value
2022-11-08T00:01:38.170Z,3.07
2022-11-08T00:04:10.479Z,3.30
2022-11-08T00:06:57.045Z,3.33
2022-11-08T00:09:43.305Z,2.87
2022-11-08T00:12:29.955Z,2.93
2022-11-08T00:14:58.274Z,3.00
2022-11-08T00:17:27.051Z,2.60
2022-11-08T00:19:54.617Z,2.80
2022-11-08T00:22:22.181Z,3.00
2022-11-08T00:24:50.564Z,2.90
2022-11-08T00:27:19.765Z,3.03
2022-11-08T00:29:47.554Z,3.00
2022-11-08T00:32:19.289Z,2.63
2022-11-08T00:34:47.444Z,3.27
2022-11-08T00:37:15.903Z,3.03
2022-11-08T00:39:43.902Z,2.60
2022-11-08T00:42:11.522Z,3.00
2022-11-08T00:44:39.049Z,2.70
2022-11-08T00:47:06.527Z,3.00
2022-11-08T00:49:34.579Z,2.80
2022-11-08T00:52:02.281Z,2.93
2022-11-08T00:54:29.992Z,2.70
2022-11-08T00:56:57.500Z,2.70
2022-11-08T00:59:25.366Z,3.17
2022-11-08T01:01:53.312Z,2.97
2022-11-08T01:04:21.632Z,3.70
2022-11-08T01:06:49.378Z,2.90
2022-11-08T01:09:17.315Z,3.47
2022-11-08T01:11:46.874Z,2.83
2022-11-08T01:14:15.558Z,3.10
2022-11-08T01:16:42.976Z,3.00
2022-11-08T01:19:10.761Z,3.30
2022-11-08T01:21:38.399Z,3.37
2022-11-08T01:24:06.239Z,3.07
2022-11-08T01:26:33.660Z,4.10
2022-11-08T01:29:01.042Z,5.00
2022-11-08T01:31:29.845Z,5.67
2022-11-08T01:33:58.272Z,3.70
2022-11-08T01:36:26.824Z,3.73
2022-11-08T01:38:54.920Z,3.10
2022-11-08T01:41:22.964Z,2.97
2022-11-08T01:43:51.252Z,2.70
2022-11-08T01:46:33.077Z,2.80
2022-11-08T01:49:06.233Z,2.47
2022-11-08T01:51:35.101Z,2.73
2022-11-08T01:54:06.175Z,2.60
2022-11-08T01:56:33.412Z,2.70
2022-11-08T01:59:02.280Z,2.90
2022-11-08T02:01:29.693Z,2.73
2022-11-08T02:03:57.077Z,3.10
2022-11-08T02:06:24.379Z,3.27
2022-11-08T02:08:51.682Z,3.40
2022-11-08T02:11:19.264Z,3.07
2022-11-08T02:13:46.621Z,3.30
2022-11-08T02:16:15.303Z,2.70
2022-11-08T02:18:44.191Z,2.97
2022-11-08T02:21:14.901Z,2.80
2022-11-08T02:23:49.125Z,3.00
2022-11-08T02:26:17.338Z,3.20
2022-11-08T02:28:45.677Z,2.97
2022-11-08T02:31:14.695Z,3.87
2022-11-08T02:33:42.439Z,4.30
2022-11-08T02:36:11.264Z,4.80
2022-11-08T02:38:41.361Z,4.80
2022-11-08T02:41:08.939Z,5.00
2022-11-08T02:43:36.352Z,4.57
2022-11-08T02:46:03.675Z,5.13
2022-11-08T02:48:30.946Z,4.60
2022-11-08T02:50:58.232Z,4.20
2022-11-08T02:53:25.802Z,4.00
2022-11-08T02:55:57.991Z,4.27
2022-11-08T02:58:25.368Z,3.67
2022-11-08T03:00:52.629Z,4.00
2022-11-08T03:03:20.156Z,3.80
2022-11-08T03:05:47.716Z,4.13
2022-11-08T03:08:16.220Z,3.70
2022-11-08T03:10:43.710Z,3.70
2022-11-08T03:13:11.407Z,3.83
2022-11-08T03:15:38.866Z,3.73
2022-11-08T03:18:06.272Z,3.63
2022-11-08T03:20:34.133Z,4.17
2022-11-08T03:23:06.560Z,3.90
2022-11-08T03:25:34.198Z,4.23
2022-11-08T03:28:09.468Z,4.40
2022-11-08T03:30:37.986Z,4.23
2022-11-08T03:33:05.641Z,4.50
2022-11-08T03:35:33.314Z,5.00
2022-11-08T03:38:00.577Z,4.87
2022-11-08T03:40:28.142Z,5.00
2022-11-08T03:42:59.705Z,4.67
2022-11-08T03:45:27.360Z,4.83
2022-11-08T03:47:54.630Z,4.30
2022-11-08T03:50:23.934Z,4.20
2022-11-08T03:52:52.209Z,3.97
2022-11-08T03:55:20.310Z,4.53
2022-11-08T03:57:48.123Z,4.00
2022-11-08T04:00:16.615Z,3.67
2022-11-08T04:02:45.254Z,4.30
2022-11-08T04:05:13.429Z,4.80
2022-11-08T04:07:41.354Z,4.30
2022-11-08T04:10:09.772Z,4.50
2022-11-08T04:13:00.367Z,4.80
2022-11-08T04:15:29.152Z,8.00
2022-11-08T04:18:19.569Z,7.07
2022-11-08T04:21:07.725Z,4.90
2022-11-08T04:23:36.276Z,4.83
2022-11-08T04:26:05.420Z,4.20
2022-11-08T04:28:33.501Z,5.03
2022-11-08T04:31:03.007Z,5.13
2022-11-08T04:33:30.383Z,5.47
2022-11-08T04:36:02.258Z,5.33
2022-11-08T04:38:30.726Z,4.53
2022-11-08T04:41:02.752Z,5.07
2022-11-08T04:43:30.647Z,5.00
2022-11-08T04:46:24.587Z,4.20
2022-11-08T04:48:53.808Z,3.40
2022-11-08T04:51:23.246Z,3.30
2022-11-08T04:53:51.041Z,3.47
2022-11-08T04:56:22.861Z,3.50
2022-11-08T04:58:51.942Z,4.03
2022-11-08T05:01:20.539Z,3.93
2022-11-08T05:03:48.743Z,3.57
2022-11-08T05:06:17.308Z,3.47
2022-11-08T05:08:44.896Z,3.93
2022-11-08T05:11:16.686Z,4.47
2022-11-08T05:13:44.483Z,4.80
2022-11-08T05:16:14.326Z,3.90
2022-11-08T05:18:42.146Z,4.43
2022-11-08T05:21:29.621Z,4.27
2022-11-08T05:23:57.064Z,4.77
2022-11-08T05:26:25.048Z,3.90
2022-11-08T05:28:52.419Z,4.10
2022-11-08T05:31:20.014Z,5.50
2022-11-08T05:33:47.332Z,5.20
2022-11-08T05:36:15.990Z,3.90
2022-11-08T05:38:43.388Z,4.10
2022-11-08T05:41:10.672Z,4.30
2022-11-08T05:43:38.462Z,4.20
2022-11-08T05:46:06.153Z,4.20
2022-11-08T05:48:33.665Z,4.97
2022-11-08T05:51:01.026Z,6.60
2022-11-08T05:53:28.486Z,5.13
2022-11-08T05:55:59.742Z,5.80
2022-11-08T05:58:27.967Z,5.57
2022-11-08T06:01:05.431Z,5.53
2022-11-08T06:03:32.891Z,5.13
2022-11-08T06:06:04.315Z,5.67
2022-11-08T06:08:34.525Z,6.70
2022-11-08T06:11:09.277Z,5.27
2022-11-08T06:13:36.708Z,4.83
2022-11-08T06:16:05.187Z,4.63
2022-11-08T06:18:33.216Z,6.87
2022-11-08T06:21:01.381Z,6.07
2022-11-08T06:23:29.100Z,6.63
2022-11-08T06:25:56.867Z,8.20
2022-11-08T06:28:24.259Z,7.80
2022-11-08T06:30:51.895Z,8.10
2022-11-08T06:33:22.822Z,6.23
2022-11-08T06:35:50.147Z,6.33
2022-11-08T06:38:17.632Z,6.93
2022-11-08T06:40:45.182Z,7.03
2022-11-08T06:43:18.057Z,5.17
2022-11-08T06:45:47.344Z,6.53
2022-11-08T06:48:14.611Z,5.33
2022-11-08T06:50:42.355Z,4.77
2022-11-08T06:53:11.596Z,4.30
2022-11-08T06:55:39.101Z,3.50
2022-11-08T06:58:06.658Z,3.33
2022-11-08T07:00:33.960Z,3.30
2022-11-08T07:03:02.313Z,3.57
2022-11-08T07:05:30.472Z,2.60
2022-11-08T07:07:59.204Z,3.50
2022-11-08T07:10:27.293Z,3.70
2022-11-08T07:13:05.235Z,4.60
2022-11-08T07:15:33.364Z,4.00
2022-11-08T07:18:08.545Z,2.67
2022-11-08T07:20:36.646Z,2.73
2022-11-08T07:23:06.724Z,3.33
2022-11-08T07:25:34.582Z,2.60
2022-11-08T07:28:03.319Z,2.50
2022-11-08T07:30:30.713Z,2.00
2022-11-08T07:32:58.977Z,2.97
2022-11-08T07:35:27.782Z,3.50
2022-11-08T07:37:57.840Z,4.40
2022-11-08T07:40:25.472Z,4.53
2022-11-08T07:45:40.451Z,4.30
2022-11-08T07:48:12.044Z,4.13
2022-11-08T07:50:40.698Z,4.50
2022-11-08T07:53:08.121Z,4.23
2022-11-08T07:55:38.989Z,4.40
2022-11-08T07:58:06.861Z,4.13
2022-11-08T08:00:38.442Z,4.43
2022-11-08T08:03:06.602Z,3.63
2022-11-08T08:05:35.281Z,4.03
2022-11-08T08:08:02.911Z,3.40
2022-11-08T08:10:30.415Z,3.87
2022-11-08T08:12:58.313Z,3.30
2022-11-08T08:15:25.956Z,3.03
2022-11-08T08:17:53.608Z,2.30
2022-11-08T08:20:20.989Z,2.33
2022-11-08T08:22:52.375Z,1.80
2022-11-08T08:25:20.032Z,2.37
2022-11-08T08:27:48.796Z,2.07
2022-11-08T08:30:19.345Z,2.40
2022-11-08T08:32:53.371Z,3.10
2022-11-08T08:35:32.899Z,3.40
2022-11-08T08:38:00.923Z,3.27
2022-11-08T08:40:28.259Z,2.90
2022-11-08T08:42:55.845Z,2.10
2022-11-08T08:45:23.310Z,5.13
2022-11-08T08:47:57.378Z,3.07
2022-11-08T08:50:25.321Z,1.80
2022-11-08T08:52:52.845Z,1.70
2022-11-08T08:55:21.033Z,1.63
2022-11-08T08:57:48.917Z,1.40
2022-11-08T09:03:05.560Z,1.70
2022-11-08T09:05:33.503Z,1.70
2022-11-08T09:08:00.905Z,1.70
2022-11-08T09:10:28.754Z,1.57
2022-11-08T09:12:56.465Z,1.60
2022-11-08T09:15:23.944Z,1.93
2022-11-08T09:17:54.312Z,2.30
2022-11-08T09:20:21.914Z,1.40
2022-11-08T09:22:49.145Z,1.53
2022-11-08T09:25:16.409Z,1.50
2022-11-08T09:27:43.865Z,1.30
2022-11-08T09:30:11.185Z,1.60
2022-11-08T09:35:25.705Z,1.60
2022-11-08T09:37:56.507Z,1.40
2022-11-08T09:40:47.048Z,1.60
2022-11-08T09:43:40.648Z,1.50
2022-11-08T09:46:10.677Z,1.33
2022-11-08T09:48:42.862Z,1.47
2022-11-08T09:51:17.685Z,1.60
2022-11-08T09:53:49.472Z,1.30
2022-11-08T09:56:25.718Z,1.20
2022-11-08T09:58:54.622Z,1.23
2022-11-08T10:01:27.128Z,1.10
2022-11-08T10:03:56.033Z,1.10
2022-11-08T10:06:30.362Z,1.00
2022-11-08T10:09:01.135Z,1.00
2022-11-08T10:11:43.829Z,1.20
2022-11-08T10:14:30.036Z,1.20
2022-11-08T10:17:20.022Z,1.10
2022-11-08T10:20:02.306Z,1.20
2022-11-08T10:22:45.383Z,1.20
2022-11-08T10:25:39.069Z,1.33
2022-11-08T10:28:07.965Z,1.00
2022-11-08T10:30:40.915Z,1.10
2022-11-08T10:33:34.717Z,1.20
2022-11-08T10:36:05.027Z,1.25
2022-11-08T10:38:37.860Z,1.40
2022-11-08T10:41:09.107Z,1.40
2022-11-08T10:43:39.007Z,1.25
2022-11-08T10:46:06.284Z,1.30
2022-11-08T10:48:40.190Z,1.55
2022-11-08T10:51:08.720Z,1.52
2022-11-08T10:53:44.212Z,1.33
2022-11-08T10:56:11.513Z,1.40
2022-11-08T10:58:43.848Z,1.30
2022-11-08T11:01:14.326Z,1.60
2022-11-08T11:03:41.651Z,1.37
2022-11-08T11:06:21.490Z,1.35
2022-11-08T11:08:50.335Z,1.67
2022-11-08T11:11:24.612Z,1.30
2022-11-08T11:14:07.919Z,1.30
2022-11-08T11:16:39.695Z,1.35
2022-11-08T11:19:07.930Z,1.30
2022-11-08T11:21:36.779Z,1.40
2022-11-08T11:24:14.363Z,1.50
2022-11-08T11:26:46.666Z,1.63
2022-11-08T11:29:13.886Z,1.58
2022-11-08T11:31:42.518Z,1.70
2022-11-08T11:34:36.537Z,1.50
2022-11-08T11:37:27.215Z,1.30
2022-11-08T11:39:54.737Z,1.42
2022-11-08T11:42:50.118Z,1.50
2022-11-08T11:45:17.522Z,1.38
2022-11-08T11:47:58.356Z,1.20
2022-11-08T11:50:36.551Z,1.23
2022-11-08T11:53:05.718Z,1.38
2022-11-08T11:55:42.347Z,1.20
2022-11-08T11:58:20.285Z,1.10
2022-11-08T12:00:57.483Z,1.10
2022-11-08T12:03:24.732Z,1.13
2022-11-08T12:06:02.758Z,1.10
2022-11-08T12:08:33.263Z,1.40
2022-11-08T12:11:07.179Z,1.02
2022-11-08T12:14:04.534Z,1.30
2022-11-08T12:16:31.815Z,1.10
2022-11-08T12:19:15.475Z,1.10
2022-11-08T12:21:54.881Z,1.30
2022-11-08T12:24:28.186Z,1.20
2022-11-08T12:27:00.353Z,1.17
2022-11-08T12:29:30.680Z,1.45
2022-11-08T12:32:13.460Z,1.17
2022-11-08T12:34:59.343Z,1.30
2022-11-08T12:37:36.378Z,1.30
2022-11-08T12:40:07.123Z,1.50
2022-11-08T12:42:53.577Z,1.40
2022-11-08T12:45:29.995Z,1.33
2022-11-08T12:48:16.600Z,1.40
2022-11-08T12:50:44.265Z,1.40
2022-11-08T12:53:23.820Z,1.35
2022-11-08T12:55:56.601Z,1.50
2022-11-08T12:58:42.812Z,1.48
2022-11-08T13:01:14.614Z,1.50
2022-11-08T13:03:53.938Z,1.15
2022-11-08T13:06:32.263Z,1.58
2022-11-08T13:09:12.135Z,1.80
2022-11-08T13:11:45.927Z,1.55
2022-11-08T13:14:17.727Z,1.40
2022-11-08T13:16:46.298Z,2.05
2022-11-08T13:19:29.917Z,2.40
2022-11-08T13:21:57.562Z,2.45
2022-11-08T13:24:43.389Z,2.60
2022-11-08T13:27:24.748Z,1.67
2022-11-08T13:29:52.753Z,1.83
2022-11-08T13:32:52.738Z,1.50
2022-11-08T13:35:21.457Z,1.70
2022-11-08T13:37:48.851Z,1.60
2022-11-08T13:40:38.241Z,1.75
2022-11-08T13:43:08.192Z,2.88
2022-11-08T13:45:35.995Z,3.33
2022-11-08T13:48:26.873Z,2.78
2022-11-08T13:50:54.449Z,1.88
2022-11-08T13:53:21.808Z,1.40
2022-11-08T13:55:56.297Z,1.33
2022-11-08T13:58:44.131Z,1.23
2022-11-08T14:01:23.442Z,1.50
2022-11-08T14:03:50.859Z,1.55
2022-11-08T14:06:18.351Z,1.77
2022-11-08T14:08:54.812Z,1.75
2022-11-08T14:11:40.500Z,2.10
2022-11-08T14:14:11.659Z,2.00
2022-11-08T14:16:44.626Z,1.98
2022-11-08T14:19:23.088Z,2.30
2022-11-08T14:21:51.850Z,3.72
2022-11-08T14:24:22.513Z,3.35
2022-11-08T14:26:49.896Z,3.92
2022-11-08T14:29:18.934Z,3.00
2022-11-08T14:31:46.566Z,2.90
2022-11-08T14:34:30.871Z,2.92
2022-11-08T14:36:58.771Z,3.25
2022-11-08T14:39:36.586Z,3.60
2022-11-08T14:42:06.024Z,2.97
2022-11-08T14:44:33.276Z,3.80
2022-11-08T14:47:00.895Z,3.65
2022-11-08T14:49:35.519Z,4.20
2022-11-08T14:52:14.772Z,3.20
2022-11-08T14:54:46.621Z,3.92
2022-11-08T14:57:33.377Z,3.42
2022-11-08T15:00:02.185Z,3.40
2022-11-08T15:02:29.666Z,3.22
2022-11-08T15:04:57.004Z,4.88
2022-11-08T15:07:25.314Z,5.03
2022-11-08T15:09:53.403Z,6.00
2022-11-08T15:12:25.669Z,5.88
2022-11-08T15:14:58.174Z,5.28
2022-11-08T15:17:38.994Z,4.85
2022-11-08T15:20:07.763Z,5.63
2022-11-08T15:22:36.518Z,6.72
2022-11-08T15:25:22.759Z,10.55
2022-11-08T15:27:55.275Z,11.13
2022-11-08T15:30:24.327Z,8.53
2022-11-08T15:32:51.915Z,11.68
2022-11-08T15:35:22.725Z,12.50
2022-11-08T15:37:51.095Z,9.30
2022-11-08T15:40:20.716Z,8.20
2022-11-08T15:42:49.986Z,7.27
2022-11-08T15:45:17.318Z,8.03
2022-11-08T15:47:46.072Z,6.93
2022-11-08T15:50:15.370Z,5.83
2022-11-08T15:52:43.041Z,4.77
2022-11-08T15:55:14.074Z,5.17
2022-11-08T15:57:42.683Z,5.40
2022-11-08T16:00:24.245Z,8.30
2022-11-08T16:02:52.182Z,7.53
2022-11-08T16:05:21.431Z,9.20
2022-11-08T16:07:48.749Z,5.87
2022-11-08T16:10:17.673Z,5.90
2022-11-08T16:12:46.428Z,5.67
2022-11-08T16:15:15.548Z,5.50
2022-11-08T16:17:43.162Z,5.70
2022-11-08T16:20:19.938Z,5.57
2022-11-08T16:22:47.202Z,6.17
2022-11-08T16:25:14.588Z,8.50
2022-11-08T16:27:41.866Z,11.20
2022-11-08T16:30:17.680Z,7.83
2022-11-08T16:32:50.677Z,5.63
2022-11-08T16:35:19.137Z,4.83
2022-11-08T16:37:46.837Z,5.43
2022-11-08T16:40:14.297Z,6.60
2022-11-08T16:42:41.995Z,11.60
2022-11-08T16:45:09.528Z,13.80
2022-11-08T16:47:37.339Z,9.80
2022-11-08T16:50:04.972Z,6.70
2022-11-08T16:52:32.242Z,6.43
2022-11-08T16:54:59.744Z,5.47
2022-11-08T16:57:35.391Z,5.17
2022-11-08T17:00:03.491Z,6.53
2022-11-08T17:02:31.425Z,5.80
2022-11-08T17:04:58.695Z,8.80
2022-11-08T17:07:27.381Z,10.43
2022-11-08T17:09:54.944Z,7.70
2022-11-08T17:12:22.459Z,7.40
2022-11-08T17:14:49.798Z,10.90
2022-11-08T17:17:17.299Z,6.60
2022-11-08T17:19:44.796Z,5.17
2022-11-08T17:22:12.194Z,5.30
2022-11-08T17:24:39.462Z,6.03
2022-11-08T17:27:07.019Z,7.27
2022-11-08T17:29:34.298Z,8.10
2022-11-08T17:32:01.567Z,8.77
2022-11-08T17:34:29.640Z,8.57
2022-11-08T17:36:56.978Z,9.50
2022-11-08T17:39:24.750Z,9.00
2022-11-08T17:41:52.123Z,8.20
2022-11-08T17:44:19.509Z,7.57
2022-11-08T17:46:48.081Z,8.80
2022-11-08T17:49:15.332Z,7.03
2022-11-08T17:51:42.605Z,8.00
2022-11-08T17:54:10.085Z,7.83
2022-11-08T17:56:37.428Z,7.33
2022-11-08T17:59:04.656Z,6.60
2022-11-08T18:01:32.828Z,6.47
2022-11-08T18:04:00.684Z,5.10
2022-11-08T18:06:28.150Z,5.40
2022-11-08T18:08:56.348Z,6.77
2022-11-08T18:11:23.949Z,8.10
2022-11-08T18:13:51.585Z,8.13
2022-11-08T18:16:22.114Z,6.27
2022-11-08T18:18:49.817Z,5.83
2022-11-08T18:21:17.568Z,5.50
2022-11-08T18:23:45.975Z,6.40
2022-11-08T18:26:14.203Z,6.67
2022-11-08T18:28:42.165Z,6.60
2022-11-08T18:31:11.302Z,6.60
2022-11-08T18:33:38.765Z,6.57
2022-11-08T18:36:15.142Z,5.80
2022-11-08T18:38:44.812Z,6.13
2022-11-08T18:41:16.387Z,5.30
2022-11-08T18:43:43.832Z,5.70
2022-11-08T18:46:18.351Z,5.17
2022-11-08T18:48:46.115Z,4.97
2022-11-08T18:51:15.432Z,5.90
2022-11-08T18:53:42.790Z,6.90
2022-11-08T18:56:10.470Z,5.93
2022-11-08T18:58:37.964Z,6.37
2022-11-08T19:01:05.491Z,4.33
2022-11-08T19:03:33.425Z,4.23
2022-11-08T19:06:01.145Z,3.70
2022-11-08T19:08:30.614Z,4.30
2022-11-08T19:11:03.133Z,4.50
2022-11-08T19:13:31.454Z,4.50
2022-11-08T19:15:59.828Z,4.60
2022-11-08T19:18:27.836Z,4.53
2022-11-08T19:20:56.096Z,9.50
2022-11-08T19:23:24.752Z,5.73
2022-11-08T19:25:56.555Z,5.50
2022-11-08T19:28:26.254Z,4.97
2022-11-08T19:30:56.650Z,5.07
2022-11-08T19:33:25.050Z,6.13
2022-11-08T19:35:53.921Z,7.63
2022-11-08T19:38:24.318Z,4.93
2022-11-08T19:40:51.717Z,6.73
2022-11-08T19:43:19.350Z,9.73
2022-11-08T19:45:50.877Z,8.40
2022-11-08T19:48:19.476Z,6.30
2022-11-08T19:50:47.037Z,5.97
2022-11-08T19:53:14.302Z,6.47
2022-11-08T19:55:41.608Z,6.93
2022-11-08T19:58:09.009Z,7.47
2022-11-08T20:00:37.578Z,8.67
2022-11-08T20:03:04.973Z,5.50
2022-11-08T20:05:32.533Z,4.73
2022-11-08T20:08:01.567Z,5.23
2022-11-08T20:10:29.362Z,4.60
2022-11-08T20:12:56.649Z,6.43
2022-11-08T20:15:24.716Z,5.53
2022-11-08T20:17:51.956Z,6.17
2022-11-08T20:20:19.682Z,6.33
2022-11-08T20:22:48.285Z,6.13
2022-11-08T20:25:16.834Z,5.00
2022-11-08T20:27:44.198Z,4.90
2022-11-08T20:30:11.879Z,4.80
2022-11-08T20:32:39.113Z,5.93
2022-11-08T20:35:06.558Z,5.17
2022-11-08T20:37:33.775Z,3.63
2022-11-08T20:40:04.266Z,4.50
2022-11-08T20:42:31.636Z,4.40
2022-11-08T20:44:58.899Z,4.73
2022-11-08T20:47:26.419Z,4.90
2022-11-08T20:49:53.800Z,4.70
2022-11-08T20:52:23.552Z,4.13
2022-11-08T20:54:50.812Z,3.87
2022-11-08T20:57:18.175Z,4.43
2022-11-08T20:59:45.639Z,4.30
2022-11-08T21:02:13.421Z,4.23
2022-11-08T21:04:40.687Z,3.87
2022-11-08T21:08:00.847Z,3.70
2022-11-08T21:10:07.692Z,3.40
2022-11-08T21:12:42.744Z,3.10
2022-11-08T21:15:10.193Z,3.17
2022-11-08T21:17:37.396Z,3.00
2022-11-08T21:20:05.344Z,2.93
2022-11-08T21:22:32.594Z,3.33
2022-11-08T21:25:00.027Z,3.90
2022-11-08T21:27:29.997Z,4.80
2022-11-08T21:29:57.456Z,3.33
2022-11-08T21:32:24.649Z,3.37
2022-11-08T21:34:51.888Z,2.90
2022-11-08T21:37:19.206Z,2.83
2022-11-08T21:39:46.368Z,3.07
2022-11-08T21:42:14.158Z,3.40
2022-11-08T21:44:41.529Z,3.40
2022-11-08T21:47:08.893Z,2.80
2022-11-08T21:49:36.117Z,3.00
2022-11-08T21:52:03.786Z,2.90
2022-11-08T21:54:31.177Z,3.10
2022-11-08T21:56:58.539Z,3.70
2022-11-08T21:59:25.884Z,3.40
2022-11-08T22:01:53.780Z,3.33
2022-11-08T22:04:21.160Z,3.37
2022-11-08T22:06:48.768Z,3.33
2022-11-08T22:09:16.195Z,3.37
2022-11-08T22:11:43.444Z,3.30
2022-11-08T22:14:11.869Z,4.17
2022-11-08T22:16:39.092Z,3.60
2022-11-08T22:19:06.571Z,3.07
2022-11-08T22:21:43.324Z,3.40
2022-11-08T22:24:10.819Z,3.30
2022-11-08T22:26:38.737Z,3.40
2022-11-08T22:29:06.516Z,3.40
2022-11-08T22:31:34.074Z,2.90
2022-11-08T22:34:02.246Z,3.00
2022-11-08T22:36:29.914Z,3.23
2022-11-08T22:38:57.477Z,3.10
2022-11-08T22:41:25.378Z,3.00
2022-11-08T22:43:53.371Z,2.90
2022-11-08T22:46:20.927Z,2.87
2022-11-08T22:48:48.651Z,2.63
2022-11-08T22:51:16.348Z,2.70
2022-11-08T22:53:43.949Z,2.77
2022-11-08T22:56:12.145Z,2.87
2022-11-08T22:58:39.808Z,2.80
2022-11-08T23:01:08.113Z,2.60
2022-11-08T23:03:35.644Z,3.03
2022-11-08T23:06:03.006Z,2.70
2022-11-08T23:08:30.504Z,2.70
2022-11-08T23:11:18.356Z,2.43
2022-11-08T23:14:04.758Z,2.77
2022-11-08T23:16:32.263Z,2.13
2022-11-08T23:19:18.709Z,2.63
2022-11-08T23:22:05.307Z,2.63
2022-11-08T23:24:33.044Z,2.10
2022-11-08T23:27:19.377Z,2.90
2022-11-08T23:30:05.375Z,2.60
2022-11-08T23:32:32.889Z,2.20
2022-11-08T23:35:00.193Z,2.47
2022-11-08T23:37:28.109Z,2.10
2022-11-08T23:40:13.918Z,1.83
2022-11-08T23:42:59.766Z,2.00
2022-11-08T23:45:27.403Z,2.40
2022-11-08T23:47:54.716Z,1.97
2022-11-08T23:50:21.979Z,2.00
2022-11-08T23:52:49.309Z,2.07
2022-11-08T23:55:16.707Z,2.10
2022-11-08T23:57:43.982Z,1.70
